sensor_id;sensor_type;location;lat;lon;timestamp;pressure;altitude;pressure_sealevel;temperature;humidity
56600;BME280;51832;48.152;11.530;2024-03-06T00:02:36;95301.47;;;9.29;100.00
56600;BME280;51832;48.152;11.530;2024-03-06T00:07:37;95296.22;;;9.04;100.00
56600;BME280;51832;48.152;11.530;2024-03-06T00:12:38;95299.44;;;9.06;100.00
56600;BME280;51832;48.152;11.530;2024-03-06T00:17:38;95304.38;;;9.20;100.00
56600;BME280;51832;48.152;11.530;2024-03-06T00:22:39;95305.13;;;9.46;100.00
56600;BME280;51832;48.152;11.530;2024-03-06T00:27:39;95309.94;;;9.49;100.00
56600;BME280;51832;48.152;11.530;2024-03-06T00:32:40;95307.16;;;9.44;100.00
56600;BME280;51832;48.152;11.530;2024-03-06T00:37:40;95302.00;;;9.37;100.00
56600;BME280;51832;48.152;11.530;2024-03-06T00:42:40;95298.03;;;9.28;100.00
56600;BME280;51832;48.152;11.530;2024-03-06T00:47:42;95304.56;;;9.19;100.00
56600;BME280;51832;48.152;11.530;2024-03-06T00:52:44;95301.16;;;9.18;100.00
56600;BME280;51832;48.152;11.530;2024-03-06T00:57:44;95295.50;;;8.97;100.00
56600;BME280;51832;48.152;11.530;2024-03-06T01:02:45;95289.75;;;9.06;100.00
56600;BME280;51832;48.152;11.530;2024-03-06T01:07:45;95293.72;;;8.90;100.00
56600;BME280;51832;48.152;11.530;2024-03-06T01:12:46;95294.69;;;8.96;100.00
56600;BME280;51832;48.152;11.530;2024-03-06T01:17:46;95297.78;;;9.11;100.00
56600;BME280;51832;48.152;11.530;2024-03-06T01:22:47;95295.50;;;8.97;100.00
56600;BME280;51832;48.152;11.530;2024-03-06T01:27:50;95282.00;;;8.93;100.00
56600;BME280;51832;48.152;11.530;2024-03-06T01:32:50;95290.41;;;9.02;100.00
56600;BME280;51832;48.152;11.530;2024-03-06T01:37:51;95284.13;;;9.03;100.00
56600;BME280;51832;48.152;11.530;2024-03-06T01:42:51;95272.50;;;9.17;100.00
56600;BME280;51832;48.152;11.530;2024-03-06T01:47:52;95276.59;;;9.31;100.00
56600;BME280;51832;48.152;11.530;2024-03-06T01:52:52;95271.72;;;9.35;100.00
56600;BME280;51832;48.152;11.530;2024-03-06T01:57:53;95273.06;;;9.19;100.00
56600;BME280;51832;48.152;11.530;2024-03-06T02:02:54;95261.94;;;9.23;100.00
56600;BME280;51832;48.152;11.530;2024-03-06T02:07:57;95272.28;;;9.18;100.00
56600;BME280;51832;48.152;11.530;2024-03-06T02:12:58;95261.13;;;9.23;100.00
56600;BME280;51832;48.152;11.530;2024-03-06T02:17:58;95251.34;;;9.30;100.00
56600;BME280;51832;48.152;11.530;2024-03-06T02:23:00;95252.75;;;9.33;100.00
56600;BME280;51832;48.152;11.530;2024-03-06T02:28:00;95250.50;;;9.36;100.00
56600;BME280;51832;48.152;11.530;2024-03-06T02:33:01;95244.53;;;9.29;100.00
56600;BME280;51832;48.152;11.530;2024-03-06T02:38:03;95250.34;;;9.31;100.00
56600;BME280;51832;48.152;11.530;2024-03-06T02:43:06;95244.06;;;9.32;100.00
56600;BME280;51832;48.152;11.530;2024-03-06T02:48:07;95250.47;;;9.18;100.00
56600;BME280;51832;48.152;11.530;2024-03-06T02:53:07;95250.63;;;9.23;100.00
56600;BME280;51832;48.152;11.530;2024-03-06T02:58:08;95249.75;;;9.11;100.00
56600;BME280;51832;48.152;11.530;2024-03-06T03:03:09;95247.91;;;9.30;100.00
56600;BME280;51832;48.152;11.530;2024-03-06T03:08:09;95258.00;;;9.33;100.00
56600;BME280;51832;48.152;11.530;2024-03-06T03:13:10;95259.09;;;9.25;100.00
56600;BME280;51832;48.152;11.530;2024-03-06T03:18:10;95258.59;;;9.35;100.00
56600;BME280;51832;48.152;11.530;2024-03-06T03:23:11;95255.03;;;9.29;100.00
56600;BME280;51832;48.152;11.530;2024-03-06T03:28:14;95271.34;;;9.31;100.00
56600;BME280;51832;48.152;11.530;2024-03-06T03:33:15;95273.84;;;9.26;100.00
56600;BME280;51832;48.152;11.530;2024-03-06T03:38:16;95273.78;;;9.08;100.00
56600;BME280;51832;48.152;11.530;2024-03-06T03:43:17;95274.75;;;8.88;100.00
56600;BME280;51832;48.152;11.530;2024-03-06T03:48:17;95275.09;;;8.99;100.00
56600;BME280;51832;48.152;11.530;2024-03-06T03:53:18;95281.56;;;8.96;100.00
56600;BME280;51832;48.152;11.530;2024-03-06T03:58:18;95273.72;;;8.46;100.00
56600;BME280;51832;48.152;11.530;2024-03-06T04:03:19;95286.47;;;8.61;100.00
56600;BME280;51832;48.152;11.530;2024-03-06T04:08:20;95284.34;;;8.51;100.00
56600;BME280;51832;48.152;11.530;2024-03-06T04:13:21;95282.53;;;8.52;100.00
56600;BME280;51832;48.152;11.530;2024-03-06T04:18:21;95291.69;;;8.43;100.00
56600;BME280;51832;48.152;11.530;2024-03-06T04:23:22;95294.53;;;8.66;100.00
56600;BME280;51832;48.152;11.530;2024-03-06T04:28:22;95294.34;;;8.61;100.00
56600;BME280;51832;48.152;11.530;2024-03-06T04:33:23;95296.94;;;8.68;100.00
56600;BME280;51832;48.152;11.530;2024-03-06T04:38:23;95293.50;;;8.92;100.00
56600;BME280;51832;48.152;11.530;2024-03-06T04:43:24;95305.09;;;8.84;100.00
56600;BME280;51832;48.152;11.530;2024-03-06T04:48:24;95307.75;;;8.78;100.00
56600;BME280;51832;48.152;11.530;2024-03-06T04:53:25;95314.50;;;8.92;100.00
56600;BME280;51832;48.152;11.530;2024-03-06T04:58:26;95318.13;;;10.44;100.00
56600;BME280;51832;48.152;11.530;2024-03-06T05:03:26;95319.66;;;11.39;100.00
56600;BME280;51832;48.152;11.530;2024-03-06T05:08:27;95329.19;;;12.44;100.00
56600;BME280;51832;48.152;11.530;2024-03-06T05:13:27;95336.53;;;13.15;91.30
56600;BME280;51832;48.152;11.530;2024-03-06T05:18:28;95337.59;;;10.96;84.84
56600;BME280;51832;48.152;11.530;2024-03-06T05:23:28;95346.50;;;9.87;91.25
56600;BME280;51832;48.152;11.530;2024-03-06T05:28:29;95347.97;;;8.72;97.84
56600;BME280;51832;48.152;11.530;2024-03-06T05:33:29;95361.47;;;8.37;100.00
56600;BME280;51832;48.152;11.530;2024-03-06T05:38:31;95356.00;;;8.45;100.00
56600;BME280;51832;48.152;11.530;2024-03-06T05:43:32;95356.72;;;8.14;100.00
56600;BME280;51832;48.152;11.530;2024-03-06T05:48:32;95361.63;;;7.98;100.00
56600;BME280;51832;48.152;11.530;2024-03-06T05:53:39;95367.41;;;8.19;100.00
56600;BME280;51832;48.152;11.530;2024-03-06T05:58:42;95374.03;;;8.22;100.00
56600;BME280;51832;48.152;11.530;2024-03-06T06:03:42;95380.28;;;8.21;100.00
56600;BME280;51832;48.152;11.530;2024-03-06T06:08:43;95379.81;;;7.86;100.00
56600;BME280;51832;48.152;11.530;2024-03-06T06:13:44;95390.28;;;7.79;100.00
56600;BME280;51832;48.152;11.530;2024-03-06T06:18:44;95391.56;;;7.64;100.00
56600;BME280;51832;48.152;11.530;2024-03-06T06:23:45;95400.41;;;7.76;100.00
56600;BME280;51832;48.152;11.530;2024-03-06T06:28:45;95401.72;;;8.05;100.00
56600;BME280;51832;48.152;11.530;2024-03-06T06:33:46;95422.50;;;7.93;100.00
56600;BME280;51832;48.152;11.530;2024-03-06T06:38:47;95409.19;;;8.01;100.00
56600;BME280;51832;48.152;11.530;2024-03-06T06:43:50;95421.25;;;8.09;100.00
56600;BME280;51832;48.152;11.530;2024-03-06T06:48:52;95426.72;;;7.94;100.00
56600;BME280;51832;48.152;11.530;2024-03-06T06:53:53;95417.72;;;7.77;100.00
56600;BME280;51832;48.152;11.530;2024-03-06T06:58:54;95420.94;;;7.79;100.00
56600;BME280;51832;48.152;11.530;2024-03-06T07:03:55;95413.63;;;7.94;100.00
56600;BME280;51832;48.152;11.530;2024-03-06T07:08:55;95417.94;;;7.56;100.00
56600;BME280;51832;48.152;11.530;2024-03-06T07:13:56;95421.38;;;7.17;100.00
56600;BME280;51832;48.152;11.530;2024-03-06T07:18:56;95431.19;;;7.87;100.00
56600;BME280;51832;48.152;11.530;2024-03-06T07:23:57;95435.06;;;7.45;100.00
56600;BME280;51832;48.152;11.530;2024-03-06T07:28:57;95439.09;;;7.61;100.00
56600;BME280;51832;48.152;11.530;2024-03-06T07:33:58;95452.00;;;7.36;100.00
56600;BME280;51832;48.152;11.530;2024-03-06T07:38:59;95448.97;;;7.06;100.00
56600;BME280;51832;48.152;11.530;2024-03-06T07:44:00;95455.00;;;7.39;100.00
56600;BME280;51832;48.152;11.530;2024-03-06T07:49:01;95457.41;;;7.41;100.00
56600;BME280;51832;48.152;11.530;2024-03-06T07:54:03;95467.06;;;7.67;100.00
56600;BME280;51832;48.152;11.530;2024-03-06T07:59:04;95465.28;;;7.41;100.00
56600;BME280;51832;48.152;11.530;2024-03-06T08:04:05;95467.91;;;7.47;100.00
56600;BME280;51832;48.152;11.530;2024-03-06T08:09:05;95478.78;;;7.58;100.00
56600;BME280;51832;48.152;11.530;2024-03-06T08:14:07;95479.75;;;7.17;100.00
56600;BME280;51832;48.152;11.530;2024-03-06T08:19:08;95482.00;;;7.46;100.00
56600;BME280;51832;48.152;11.530;2024-03-06T08:24:09;95486.22;;;7.47;100.00
56600;BME280;51832;48.152;11.530;2024-03-06T08:29:11;95486.22;;;7.61;100.00
56600;BME280;51832;48.152;11.530;2024-03-06T08:34:11;95488.44;;;7.31;100.00
56600;BME280;51832;48.152;11.530;2024-03-06T08:39:12;95492.25;;;7.55;100.00
56600;BME280;51832;48.152;11.530;2024-03-06T08:44:15;95497.09;;;7.71;100.00
56600;BME280;51832;48.152;11.530;2024-03-06T08:49:15;95494.88;;;7.61;100.00
56600;BME280;51832;48.152;11.530;2024-03-06T08:54:16;95501.91;;;7.87;100.00
56600;BME280;51832;48.152;11.530;2024-03-06T08:59:16;95503.50;;;8.01;100.00
56600;BME280;51832;48.152;11.530;2024-03-06T09:04:17;95508.13;;;8.12;100.00
56600;BME280;51832;48.152;11.530;2024-03-06T09:09:18;95528.91;;;8.01;100.00
56600;BME280;51832;48.152;11.530;2024-03-06T09:14:18;95517.41;;;8.15;100.00
56600;BME280;51832;48.152;11.530;2024-03-06T09:19:18;95523.28;;;7.77;100.00
56600;BME280;51832;48.152;11.530;2024-03-06T09:24:23;95519.84;;;8.03;100.00
56600;BME280;51832;48.152;11.530;2024-03-06T09:29:23;95526.50;;;8.06;100.00
56600;BME280;51832;48.152;11.530;2024-03-06T09:34:24;95526.50;;;7.73;100.00
56600;BME280;51832;48.152;11.530;2024-03-06T09:39:24;95532.34;;;7.81;100.00
56600;BME280;51832;48.152;11.530;2024-03-06T09:44:25;95535.16;;;7.93;100.00
56600;BME280;51832;48.152;11.530;2024-03-06T09:49:25;95544.84;;;7.60;100.00
56600;BME280;51832;48.152;11.530;2024-03-06T09:54:26;95547.44;;;7.79;100.00
56600;BME280;51832;48.152;11.530;2024-03-06T09:59:27;95554.09;;;8.08;100.00
56600;BME280;51832;48.152;11.530;2024-03-06T10:04:27;95544.00;;;8.25;100.00
56600;BME280;51832;48.152;11.530;2024-03-06T10:09:29;95555.25;;;8.52;100.00
56600;BME280;51832;48.152;11.530;2024-03-06T10:14:30;95556.50;;;8.43;100.00
56600;BME280;51832;48.152;11.530;2024-03-06T10:19:31;95561.53;;;8.38;100.00
56600;BME280;51832;48.152;11.530;2024-03-06T10:24:32;95559.75;;;8.32;100.00
56600;BME280;51832;48.152;11.530;2024-03-06T10:29:34;95566.53;;;8.59;100.00
56600;BME280;51832;48.152;11.530;2024-03-06T10:34:37;95580.38;;;8.79;100.00
56600;BME280;51832;48.152;11.530;2024-03-06T10:39:41;95578.41;;;8.68;100.00
56600;BME280;51832;48.152;11.530;2024-03-06T10:44:50;95579.44;;;8.61;100.00
56600;BME280;51832;48.152;11.530;2024-03-06T10:49:53;95586.41;;;8.93;100.00
56600;BME280;51832;48.152;11.530;2024-03-06T10:54:55;95586.88;;;8.64;100.00
56600;BME280;51832;48.152;11.530;2024-03-06T10:59:57;95590.50;;;8.69;100.00
56600;BME280;51832;48.152;11.530;2024-03-06T11:05:02;95581.88;;;8.49;100.00
56600;BME280;51832;48.152;11.530;2024-03-06T11:10:05;95592.97;;;8.58;100.00
56600;BME280;51832;48.152;11.530;2024-03-06T11:20:17;95593.63;;;9.04;100.00
56600;BME280;51832;48.152;11.530;2024-03-06T11:30:59;95597.34;;;8.83;100.00
56600;BME280;51832;48.152;11.530;2024-03-06T11:41:27;95592.09;;;8.83;100.00
56600;BME280;51832;48.152;11.530;2024-03-06T11:51:48;95580.69;;;9.47;99.56
56600;BME280;51832;48.152;11.530;2024-03-06T11:56:50;95593.06;;;9.34;99.00
56600;BME280;51832;48.152;11.530;2024-03-06T12:01:52;95597.13;;;9.68;96.38
56600;BME280;51832;48.152;11.530;2024-03-06T12:06:57;95600.34;;;9.38;97.27
56600;BME280;51832;48.152;11.530;2024-03-06T12:11:59;95605.66;;;9.25;97.99
56600;BME280;51832;48.152;11.530;2024-03-06T12:17:01;95600.31;;;8.94;100.00
56600;BME280;51832;48.152;11.530;2024-03-06T12:22:04;95605.31;;;9.15;100.00
56600;BME280;51832;48.152;11.530;2024-03-06T12:27:06;95604.84;;;9.24;98.71
56600;BME280;51832;48.152;11.530;2024-03-06T12:32:16;95611.09;;;9.61;97.53
56600;BME280;51832;48.152;11.530;2024-03-06T12:37:20;95606.34;;;9.45;98.12
56600;BME280;51832;48.152;11.530;2024-03-06T12:42:28;95614.31;;;9.63;96.29
56600;BME280;51832;48.152;11.530;2024-03-06T12:47:29;95618.03;;;9.49;95.97
56600;BME280;51832;48.152;11.530;2024-03-06T12:52:29;95619.72;;;9.75;96.00
56600;BME280;51832;48.152;11.530;2024-03-06T12:57:29;95620.09;;;9.79;96.04
56600;BME280;51832;48.152;11.530;2024-03-06T13:02:30;95620.94;;;9.41;96.41
56600;BME280;51832;48.152;11.530;2024-03-06T13:07:30;95621.13;;;9.40;96.55
56600;BME280;51832;48.152;11.530;2024-03-06T13:12:31;95617.22;;;9.55;95.09
56600;BME280;51832;48.152;11.530;2024-03-06T13:17:32;95622.81;;;9.66;96.23
56600;BME280;51832;48.152;11.530;2024-03-06T13:22:32;95615.56;;;9.61;96.21
56600;BME280;51832;48.152;11.530;2024-03-06T13:27:33;95618.84;;;9.50;96.60
56600;BME280;51832;48.152;11.530;2024-03-06T13:32:33;95617.16;;;9.24;98.43
56600;BME280;51832;48.152;11.530;2024-03-06T13:37:34;95617.97;;;8.73;99.33
56600;BME280;51832;48.152;11.530;2024-03-06T13:42:35;95609.28;;;8.73;99.56
56600;BME280;51832;48.152;11.530;2024-03-06T13:47:35;95617.56;;;8.70;99.93
56600;BME280;51832;48.152;11.530;2024-03-06T13:52:36;95615.72;;;8.77;97.99
56600;BME280;51832;48.152;11.530;2024-03-06T13:57:38;95620.34;;;8.81;98.37
56600;BME280;51832;48.152;11.530;2024-03-06T14:02:39;95618.84;;;9.12;96.21
56600;BME280;51832;48.152;11.530;2024-03-06T14:07:40;95619.97;;;8.65;98.45
56600;BME280;51832;48.152;11.530;2024-03-06T14:12:40;95627.72;;;9.04;96.02
56600;BME280;51832;48.152;11.530;2024-03-06T14:17:41;95626.59;;;8.87;97.10
56600;BME280;51832;48.152;11.530;2024-03-06T14:22:42;95617.72;;;8.88;95.64
56600;BME280;51832;48.152;11.530;2024-03-06T14:27:42;95618.81;;;8.34;100.00
56600;BME280;51832;48.152;11.530;2024-03-06T14:32:43;95622.19;;;8.68;98.35
56600;BME280;51832;48.152;11.530;2024-03-06T14:37:44;95629.63;;;8.77;98.28
56600;BME280;51832;48.152;11.530;2024-03-06T14:42:44;95628.25;;;8.68;97.46
56600;BME280;51832;48.152;11.530;2024-03-06T14:47:45;95641.16;;;8.63;97.26
56600;BME280;51832;48.152;11.530;2024-03-06T14:52:45;95647.41;;;7.90;100.00
56600;BME280;51832;48.152;11.530;2024-03-06T14:57:46;95645.81;;;8.08;99.31
56600;BME280;51832;48.152;11.530;2024-03-06T15:02:47;95644.38;;;8.78;97.74
56600;BME280;51832;48.152;11.530;2024-03-06T15:07:48;95653.44;;;8.76;97.73
56600;BME280;51832;48.152;11.530;2024-03-06T15:12:48;95650.25;;;8.47;96.98
56600;BME280;51832;48.152;11.530;2024-03-06T15:17:49;95654.31;;;8.57;97.97
56600;BME280;51832;48.152;11.530;2024-03-06T15:22:50;95660.69;;;8.94;97.30
56600;BME280;51832;48.152;11.530;2024-03-06T15:27:50;95651.84;;;8.75;99.25
56600;BME280;51832;48.152;11.530;2024-03-06T15:32:51;95661.44;;;9.14;96.72
56600;BME280;51832;48.152;11.530;2024-03-06T15:37:52;95664.94;;;8.88;96.14
56600;BME280;51832;48.152;11.530;2024-03-06T15:42:55;95666.38;;;8.64;98.07
56600;BME280;51832;48.152;11.530;2024-03-06T15:47:56;95674.88;;;8.40;100.00
56600;BME280;51832;48.152;11.530;2024-03-06T15:52:57;95673.84;;;8.28;100.00
56600;BME280;51832;48.152;11.530;2024-03-06T15:57:57;95678.88;;;8.09;100.00
56600;BME280;51832;48.152;11.530;2024-03-06T16:02:58;95678.09;;;8.15;100.00
56600;BME280;51832;48.152;11.530;2024-03-06T16:08:00;95675.25;;;7.91;100.00
56600;BME280;51832;48.152;11.530;2024-03-06T16:13:01;95679.78;;;7.49;100.00
56600;BME280;51832;48.152;11.530;2024-03-06T16:18:01;95689.47;;;7.68;100.00
56600;BME280;51832;48.152;11.530;2024-03-06T16:23:02;95687.94;;;8.20;100.00
56600;BME280;51832;48.152;11.530;2024-03-06T16:28:03;95701.22;;;7.79;100.00
56600;BME280;51832;48.152;11.530;2024-03-06T16:33:03;95697.75;;;7.72;100.00
56600;BME280;51832;48.152;11.530;2024-03-06T16:38:04;95703.06;;;7.92;100.00
56600;BME280;51832;48.152;11.530;2024-03-06T16:43:06;95713.56;;;8.18;98.63
56600;BME280;51832;48.152;11.530;2024-03-06T16:48:06;95719.00;;;8.03;99.30
56600;BME280;51832;48.152;11.530;2024-03-06T16:53:07;95716.97;;;7.99;98.39
56600;BME280;51832;48.152;11.530;2024-03-06T16:58:07;95723.91;;;8.33;100.00
56600;BME280;51832;48.152;11.530;2024-03-06T17:03:08;95732.97;;;8.37;100.00
56600;BME280;51832;48.152;11.530;2024-03-06T17:08:08;95729.28;;;7.03;100.00
56600;BME280;51832;48.152;11.530;2024-03-06T17:13:09;95743.13;;;7.31;100.00
56600;BME280;51832;48.152;11.530;2024-03-06T17:18:09;95741.56;;;7.37;100.00
56600;BME280;51832;48.152;11.530;2024-03-06T17:23:11;95741.69;;;7.22;100.00
56600;BME280;51832;48.152;11.530;2024-03-06T17:28:11;95741.31;;;6.97;100.00
56600;BME280;51832;48.152;11.530;2024-03-06T17:33:13;95748.22;;;7.11;100.00
56600;BME280;51832;48.152;11.530;2024-03-06T17:38:16;95757.16;;;6.61;100.00
56600;BME280;51832;48.152;11.530;2024-03-06T17:43:17;95756.78;;;6.92;100.00
56600;BME280;51832;48.152;11.530;2024-03-06T17:48:17;95760.81;;;7.29;100.00
56600;BME280;51832;48.152;11.530;2024-03-06T17:53:18;95755.72;;;7.14;100.00
56600;BME280;51832;48.152;11.530;2024-03-06T17:58:18;95770.31;;;6.96;100.00
56600;BME280;51832;48.152;11.530;2024-03-06T18:03:18;95759.03;;;6.95;100.00
56600;BME280;51832;48.152;11.530;2024-03-06T18:08:20;95764.00;;;7.25;100.00
56600;BME280;51832;48.152;11.530;2024-03-06T18:13:21;95776.38;;;7.03;100.00
56600;BME280;51832;48.152;11.530;2024-03-06T18:18:21;95782.38;;;6.97;100.00
56600;BME280;51832;48.152;11.530;2024-03-06T18:23:23;95786.19;;;7.63;100.00
56600;BME280;51832;48.152;11.530;2024-03-06T18:28:25;95781.56;;;6.96;100.00
56600;BME280;51832;48.152;11.530;2024-03-06T18:33:25;95775.47;;;7.58;100.00
56600;BME280;51832;48.152;11.530;2024-03-06T18:38:26;95786.06;;;7.43;100.00
56600;BME280;51832;48.152;11.530;2024-03-06T18:43:26;95772.75;;;7.38;100.00
56600;BME280;51832;48.152;11.530;2024-03-06T18:48:26;95775.91;;;6.93;100.00
56600;BME280;51832;48.152;11.530;2024-03-06T18:53:27;95779.84;;;7.10;100.00
56600;BME280;51832;48.152;11.530;2024-03-06T18:58:28;95781.88;;;7.49;100.00
56600;BME280;51832;48.152;11.530;2024-03-06T19:03:29;95796.13;;;7.40;100.00
56600;BME280;51832;48.152;11.530;2024-03-06T19:08:29;95797.53;;;7.42;100.00
56600;BME280;51832;48.152;11.530;2024-03-06T19:13:30;95797.69;;;7.00;100.00
56600;BME280;51832;48.152;11.530;2024-03-06T19:18:30;95799.53;;;7.34;100.00
56600;BME280;51832;48.152;11.530;2024-03-06T19:23:31;95796.13;;;7.40;100.00
56600;BME280;51832;48.152;11.530;2024-03-06T19:28:31;95798.47;;;7.28;100.00
56600;BME280;51832;48.152;11.530;2024-03-06T19:33:32;95806.03;;;6.82;100.00
56600;BME280;51832;48.152;11.530;2024-03-06T19:38:32;95805.94;;;6.97;100.00
56600;BME280;51832;48.152;11.530;2024-03-06T19:43:33;95810.69;;;6.44;100.00
56600;BME280;51832;48.152;11.530;2024-03-06T19:48:37;95808.28;;;6.21;100.00
56600;BME280;51832;48.152;11.530;2024-03-06T19:53:38;95803.97;;;7.05;100.00
56600;BME280;51832;48.152;11.530;2024-03-06T19:58:38;95803.91;;;6.07;100.00
56600;BME280;51832;48.152;11.530;2024-03-06T20:03:39;95800.28;;;6.72;100.00
56600;BME280;51832;48.152;11.530;2024-03-06T20:08:39;95818.72;;;6.21;100.00
56600;BME280;51832;48.152;11.530;2024-03-06T20:13:40;95811.44;;;6.59;100.00
56600;BME280;51832;48.152;11.530;2024-03-06T20:18:41;95819.06;;;6.54;100.00
56600;BME280;51832;48.152;11.530;2024-03-06T20:23:41;95818.97;;;6.26;100.00
56600;BME280;51832;48.152;11.530;2024-03-06T20:28:41;95820.06;;;6.17;100.00
56600;BME280;51832;48.152;11.530;2024-03-06T20:33:44;95823.31;;;6.19;100.00
56600;BME280;51832;48.152;11.530;2024-03-06T20:38:45;95822.16;;;5.71;100.00
56600;BME280;51832;48.152;11.530;2024-03-06T20:43:45;95823.22;;;6.49;100.00
56600;BME280;51832;48.152;11.530;2024-03-06T20:48:46;95814.41;;;6.56;100.00
56600;BME280;51832;48.152;11.530;2024-03-06T20:53:48;95822.09;;;6.79;100.00
56600;BME280;51832;48.152;11.530;2024-03-06T20:58:48;95824.69;;;6.58;100.00
56600;BME280;51832;48.152;11.530;2024-03-06T21:03:50;95813.16;;;6.73;100.00
56600;BME280;51832;48.152;11.530;2024-03-06T21:08:51;95811.69;;;6.43;100.00
56600;BME280;51832;48.152;11.530;2024-03-06T21:13:51;95819.66;;;6.77;100.00
56600;BME280;51832;48.152;11.530;2024-03-06T21:18:52;95820.38;;;6.93;100.00
56600;BME280;51832;48.152;11.530;2024-03-06T21:23:52;95818.47;;;6.16;100.00
56600;BME280;51832;48.152;11.530;2024-03-06T21:28:52;95820.03;;;6.32;100.00
56600;BME280;51832;48.152;11.530;2024-03-06T21:33:53;95808.16;;;6.51;100.00
56600;BME280;51832;48.152;11.530;2024-03-06T21:38:54;95802.16;;;6.57;100.00
56600;BME280;51832;48.152;11.530;2024-03-06T21:43:55;95802.19;;;6.14;100.00
56600;BME280;51832;48.152;11.530;2024-03-06T21:48:56;95806.88;;;6.04;100.00
56600;BME280;51832;48.152;11.530;2024-03-06T21:53:57;95806.16;;;6.31;100.00
56600;BME280;51832;48.152;11.530;2024-03-06T21:58:58;95811.28;;;6.39;100.00
56600;BME280;51832;48.152;11.530;2024-03-06T22:03:59;95813.84;;;6.18;100.00
56600;BME280;51832;48.152;11.530;2024-03-06T22:08:59;95822.66;;;5.81;100.00
56600;BME280;51832;48.152;11.530;2024-03-06T22:13:59;95810.97;;;5.92;100.00
56600;BME280;51832;48.152;11.530;2024-03-06T22:19:00;95813.13;;;5.88;100.00
56600;BME280;51832;48.152;11.530;2024-03-06T22:24:00;95812.88;;;5.68;100.00
56600;BME280;51832;48.152;11.530;2024-03-06T22:29:01;95812.59;;;5.63;100.00
56600;BME280;51832;48.152;11.530;2024-03-06T22:34:07;95809.47;;;5.53;100.00
56600;BME280;51832;48.152;11.530;2024-03-06T22:39:07;95815.00;;;5.94;100.00
56600;BME280;51832;48.152;11.530;2024-03-06T22:44:07;95815.78;;;6.10;100.00
56600;BME280;51832;48.152;11.530;2024-03-06T22:49:08;95819.59;;;5.92;100.00
56600;BME280;51832;48.152;11.530;2024-03-06T22:54:09;95811.75;;;6.07;100.00
56600;BME280;51832;48.152;11.530;2024-03-06T22:59:09;95814.75;;;5.89;100.00
56600;BME280;51832;48.152;11.530;2024-03-06T23:04:10;95822.88;;;5.65;100.00
56600;BME280;51832;48.152;11.530;2024-03-06T23:09:11;95819.91;;;6.19;100.00
56600;BME280;51832;48.152;11.530;2024-03-06T23:14:13;95819.31;;;6.02;100.00
56600;BME280;51832;48.152;11.530;2024-03-06T23:19:15;95818.50;;;6.01;100.00
56600;BME280;51832;48.152;11.530;2024-03-06T23:24:15;95823.91;;;6.36;100.00
56600;BME280;51832;48.152;11.530;2024-03-06T23:29:16;95817.53;;;6.45;100.00
56600;BME280;51832;48.152;11.530;2024-03-06T23:34:16;95816.88;;;6.36;100.00
56600;BME280;51832;48.152;11.530;2024-03-06T23:39:16;95817.47;;;6.17;100.00
56600;BME280;51832;48.152;11.530;2024-03-06T23:44:19;95824.56;;;5.72;100.00
56600;BME280;51832;48.152;11.530;2024-03-06T23:49:19;95813.94;;;5.89;100.00
56600;BME280;51832;48.152;11.530;2024-03-06T23:54:20;95815.47;;;6.19;100.00
56600;BME280;51832;48.152;11.530;2024-03-06T23:59:21;95808.06;;;6.44;100.00
